sensor_id;sensor_type;location;lat;lon;timestamp;P1;durP1;ratioP1;P2;durP2;ratioP2
68216;SDS011;55037;52.354;4.992;2023-06-10T00:00:00;6.43;;;3.43;;
68216;SDS011;55037;52.354;4.992;2023-06-10T00:02:38;9.75;;;3.47;;
68216;SDS011;55037;52.354;4.992;2023-06-10T00:05:06;9.18;;;3.08;;
68216;SDS011;55037;52.354;4.992;2023-06-10T00:07:35;7.65;;;3.67;;
68216;SDS011;55037;52.354;4.992;2023-06-10T00:10:07;7.97;;;3.72;;
68216;SDS011;55037;52.354;4.992;2023-06-10T00:12:35;9.47;;;3.97;;
68216;SDS011;55037;52.354;4.992;2023-06-10T00:15:05;5.57;;;3.35;;
68216;SDS011;55037;52.354;4.992;2023-06-10T00:17:33;6.82;;;3.42;;
68216;SDS011;55037;52.354;4.992;2023-06-10T00:20:01;7.25;;;3.03;;
68216;SDS011;55037;52.354;4.992;2023-06-10T00:22:31;8.52;;;3.38;;
68216;SDS011;55037;52.354;4.992;2023-06-10T00:24:58;6.67;;;3.50;;
68216;SDS011;55037;52.354;4.992;2023-06-10T00:27:26;7.20;;;3.22;;
68216;SDS011;55037;52.354;4.992;2023-06-10T00:29:59;9.05;;;3.67;;
68216;SDS011;55037;52.354;4.992;2023-06-10T00:32:33;6.90;;;3.47;;
68216;SDS011;55037;52.354;4.992;2023-06-10T00:35:02;5.00;;;2.92;;
68216;SDS011;55037;52.354;4.992;2023-06-10T00:37:31;10.20;;;3.83;;
68216;SDS011;55037;52.354;4.992;2023-06-10T00:40:02;4.82;;;2.67;;
68216;SDS011;55037;52.354;4.992;2023-06-10T00:42:31;6.72;;;3.03;;
68216;SDS011;55037;52.354;4.992;2023-06-10T00:44:58;8.55;;;3.33;;
68216;SDS011;55037;52.354;4.992;2023-06-10T00:47:26;6.43;;;3.05;;
68216;SDS011;55037;52.354;4.992;2023-06-10T00:49:54;6.00;;;3.13;;
68216;SDS011;55037;52.354;4.992;2023-06-10T00:52:24;6.53;;;3.60;;
68216;SDS011;55037;52.354;4.992;2023-06-10T00:54:56;8.65;;;3.80;;
68216;SDS011;55037;52.354;4.992;2023-06-10T00:57:23;7.55;;;3.90;;
68216;SDS011;55037;52.354;4.992;2023-06-10T00:59:50;7.25;;;3.80;;
68216;SDS011;55037;52.354;4.992;2023-06-10T01:02:17;7.17;;;3.40;;
68216;SDS011;55037;52.354;4.992;2023-06-10T01:04:45;7.80;;;3.47;;
68216;SDS011;55037;52.354;4.992;2023-06-10T01:09:54;6.32;;;3.50;;
68216;SDS011;55037;52.354;4.992;2023-06-10T01:12:37;8.10;;;3.70;;
68216;SDS011;55037;52.354;4.992;2023-06-10T01:15:17;8.73;;;4.17;;
68216;SDS011;55037;52.354;4.992;2023-06-10T01:17:58;8.57;;;3.70;;
68216;SDS011;55037;52.354;4.992;2023-06-10T01:20:31;6.50;;;3.58;;
68216;SDS011;55037;52.354;4.992;2023-06-10T01:22:59;7.05;;;3.80;;
68216;SDS011;55037;52.354;4.992;2023-06-10T01:25:27;6.82;;;3.58;;
68216;SDS011;55037;52.354;4.992;2023-06-10T01:28:03;10.67;;;4.07;;
68216;SDS011;55037;52.354;4.992;2023-06-10T01:30:55;7.35;;;3.58;;
68216;SDS011;55037;52.354;4.992;2023-06-10T01:33:43;8.55;;;3.50;;
68216;SDS011;55037;52.354;4.992;2023-06-10T01:36:15;8.25;;;3.75;;
68216;SDS011;55037;52.354;4.992;2023-06-10T01:38:48;7.70;;;3.45;;
68216;SDS011;55037;52.354;4.992;2023-06-10T01:41:19;7.70;;;3.70;;
68216;SDS011;55037;52.354;4.992;2023-06-10T01:43:48;7.97;;;3.85;;
68216;SDS011;55037;52.354;4.992;2023-06-10T01:46:15;6.13;;;3.55;;
68216;SDS011;55037;52.354;4.992;2023-06-10T01:48:46;9.40;;;3.33;;
68216;SDS011;55037;52.354;4.992;2023-06-10T01:51:15;9.52;;;3.97;;
68216;SDS011;55037;52.354;4.992;2023-06-10T01:53:42;8.83;;;4.07;;
68216;SDS011;55037;52.354;4.992;2023-06-10T01:56:09;6.68;;;3.70;;
68216;SDS011;55037;52.354;4.992;2023-06-10T01:58:43;8.60;;;3.60;;
68216;SDS011;55037;52.354;4.992;2023-06-10T02:01:11;6.53;;;3.83;;
68216;SDS011;55037;52.354;4.992;2023-06-10T02:03:38;8.07;;;3.90;;
68216;SDS011;55037;52.354;4.992;2023-06-10T02:06:05;9.53;;;3.40;;
68216;SDS011;55037;52.354;4.992;2023-06-10T02:08:33;8.30;;;4.20;;
68216;SDS011;55037;52.354;4.992;2023-06-10T02:11:00;5.20;;;3.55;;
68216;SDS011;55037;52.354;4.992;2023-06-10T02:13:29;6.82;;;3.95;;
68216;SDS011;55037;52.354;4.992;2023-06-10T02:15:56;7.22;;;4.03;;
68216;SDS011;55037;52.354;4.992;2023-06-10T02:18:28;11.80;;;4.07;;
68216;SDS011;55037;52.354;4.992;2023-06-10T02:20:55;10.55;;;4.65;;
68216;SDS011;55037;52.354;4.992;2023-06-10T02:23:23;7.28;;;4.22;;
68216;SDS011;55037;52.354;4.992;2023-06-10T02:25:50;8.38;;;3.40;;
68216;SDS011;55037;52.354;4.992;2023-06-10T02:28:17;7.63;;;4.25;;
68216;SDS011;55037;52.354;4.992;2023-06-10T02:30:45;10.90;;;3.50;;
68216;SDS011;55037;52.354;4.992;2023-06-10T02:33:13;7.25;;;3.28;;
68216;SDS011;55037;52.354;4.992;2023-06-10T02:35:41;7.05;;;3.53;;
68216;SDS011;55037;52.354;4.992;2023-06-10T02:38:08;7.47;;;3.53;;
68216;SDS011;55037;52.354;4.992;2023-06-10T02:40:37;7.20;;;4.03;;
68216;SDS011;55037;52.354;4.992;2023-06-10T02:43:04;6.63;;;3.53;;
68216;SDS011;55037;52.354;4.992;2023-06-10T02:45:32;8.50;;;4.20;;
68216;SDS011;55037;52.354;4.992;2023-06-10T02:48:01;8.90;;;4.18;;
68216;SDS011;55037;52.354;4.992;2023-06-10T02:50:29;8.65;;;4.03;;
68216;SDS011;55037;52.354;4.992;2023-06-10T02:53:05;6.00;;;3.60;;
68216;SDS011;55037;52.354;4.992;2023-06-10T02:55:34;7.03;;;3.77;;
68216;SDS011;55037;52.354;4.992;2023-06-10T02:58:05;12.10;;;3.80;;
68216;SDS011;55037;52.354;4.992;2023-06-10T03:00:34;11.73;;;4.40;;
68216;SDS011;55037;52.354;4.992;2023-06-10T03:03:03;8.75;;;3.88;;
68216;SDS011;55037;52.354;4.992;2023-06-10T03:05:39;6.97;;;3.92;;
68216;SDS011;55037;52.354;4.992;2023-06-10T03:08:08;7.63;;;4.00;;
68216;SDS011;55037;52.354;4.992;2023-06-10T03:10:39;9.18;;;3.80;;
68216;SDS011;55037;52.354;4.992;2023-06-10T03:13:07;7.05;;;3.45;;
68216;SDS011;55037;52.354;4.992;2023-06-10T03:15:36;8.50;;;4.57;;
68216;SDS011;55037;52.354;4.992;2023-06-10T03:18:07;6.95;;;4.00;;
68216;SDS011;55037;52.354;4.992;2023-06-10T03:20:35;10.37;;;4.07;;
68216;SDS011;55037;52.354;4.992;2023-06-10T03:23:04;8.90;;;4.47;;
68216;SDS011;55037;52.354;4.992;2023-06-10T03:25:35;7.55;;;3.80;;
68216;SDS011;55037;52.354;4.992;2023-06-10T03:28:04;10.20;;;4.10;;
68216;SDS011;55037;52.354;4.992;2023-06-10T03:30:34;8.35;;;3.55;;
68216;SDS011;55037;52.354;4.992;2023-06-10T03:33:02;9.13;;;4.22;;
68216;SDS011;55037;52.354;4.992;2023-06-10T03:35:30;8.30;;;3.85;;
68216;SDS011;55037;52.354;4.992;2023-06-10T03:37:59;6.07;;;3.30;;
68216;SDS011;55037;52.354;4.992;2023-06-10T03:40:26;7.75;;;3.47;;
68216;SDS011;55037;52.354;4.992;2023-06-10T03:42:54;6.05;;;3.90;;
68216;SDS011;55037;52.354;4.992;2023-06-10T03:45:21;8.30;;;4.07;;
68216;SDS011;55037;52.354;4.992;2023-06-10T03:47:48;10.18;;;4.60;;
68216;SDS011;55037;52.354;4.992;2023-06-10T03:50:19;8.88;;;3.97;;
68216;SDS011;55037;52.354;4.992;2023-06-10T03:52:46;8.35;;;3.83;;
68216;SDS011;55037;52.354;4.992;2023-06-10T03:55:15;9.18;;;3.95;;
68216;SDS011;55037;52.354;4.992;2023-06-10T03:57:44;8.60;;;4.03;;
68216;SDS011;55037;52.354;4.992;2023-06-10T04:00:12;8.07;;;3.75;;
68216;SDS011;55037;52.354;4.992;2023-06-10T04:02:43;6.05;;;3.75;;
68216;SDS011;55037;52.354;4.992;2023-06-10T04:05:30;5.90;;;3.80;;
68216;SDS011;55037;52.354;4.992;2023-06-10T04:07:58;7.10;;;4.00;;
68216;SDS011;55037;52.354;4.992;2023-06-10T04:10:26;6.27;;;3.43;;
68216;SDS011;55037;52.354;4.992;2023-06-10T04:12:54;8.50;;;3.83;;
68216;SDS011;55037;52.354;4.992;2023-06-10T04:15:24;7.28;;;4.30;;
68216;SDS011;55037;52.354;4.992;2023-06-10T04:17:52;7.50;;;3.65;;
68216;SDS011;55037;52.354;4.992;2023-06-10T04:20:22;11.00;;;3.78;;
68216;SDS011;55037;52.354;4.992;2023-06-10T04:22:50;6.70;;;3.70;;
68216;SDS011;55037;52.354;4.992;2023-06-10T04:25:18;10.30;;;4.53;;
68216;SDS011;55037;52.354;4.992;2023-06-10T04:27:48;8.02;;;4.18;;
68216;SDS011;55037;52.354;4.992;2023-06-10T04:30:16;9.30;;;4.25;;
68216;SDS011;55037;52.354;4.992;2023-06-10T04:32:44;6.18;;;3.85;;
68216;SDS011;55037;52.354;4.992;2023-06-10T04:35:15;6.30;;;3.97;;
68216;SDS011;55037;52.354;4.992;2023-06-10T04:37:43;7.05;;;3.88;;
68216;SDS011;55037;52.354;4.992;2023-06-10T04:40:10;8.43;;;4.25;;
68216;SDS011;55037;52.354;4.992;2023-06-10T04:42:38;5.95;;;3.95;;
68216;SDS011;55037;52.354;4.992;2023-06-10T04:45:06;10.25;;;4.03;;
68216;SDS011;55037;52.354;4.992;2023-06-10T04:47:35;7.87;;;4.10;;
68216;SDS011;55037;52.354;4.992;2023-06-10T04:50:04;7.90;;;4.53;;
68216;SDS011;55037;52.354;4.992;2023-06-10T04:52:32;9.65;;;4.30;;
68216;SDS011;55037;52.354;4.992;2023-06-10T04:55:00;7.03;;;3.75;;
68216;SDS011;55037;52.354;4.992;2023-06-10T04:57:27;10.40;;;4.25;;
68216;SDS011;55037;52.354;4.992;2023-06-10T04:59:55;8.13;;;3.60;;
68216;SDS011;55037;52.354;4.992;2023-06-10T05:02:22;9.02;;;4.30;;
68216;SDS011;55037;52.354;4.992;2023-06-10T05:04:49;7.38;;;3.90;;
68216;SDS011;55037;52.354;4.992;2023-06-10T05:07:17;10.07;;;3.92;;
68216;SDS011;55037;52.354;4.992;2023-06-10T05:09:44;8.20;;;4.43;;
68216;SDS011;55037;52.354;4.992;2023-06-10T05:12:11;8.90;;;4.30;;
68216;SDS011;55037;52.354;4.992;2023-06-10T05:14:39;11.80;;;3.92;;
68216;SDS011;55037;52.354;4.992;2023-06-10T05:17:06;7.53;;;4.05;;
68216;SDS011;55037;52.354;4.992;2023-06-10T05:19:33;8.77;;;4.47;;
68216;SDS011;55037;52.354;4.992;2023-06-10T05:22:02;9.43;;;4.43;;
68216;SDS011;55037;52.354;4.992;2023-06-10T05:24:30;8.20;;;4.33;;
68216;SDS011;55037;52.354;4.992;2023-06-10T05:26:57;9.75;;;4.05;;
68216;SDS011;55037;52.354;4.992;2023-06-10T05:29:24;9.52;;;4.43;;
68216;SDS011;55037;52.354;4.992;2023-06-10T05:31:52;7.63;;;4.05;;
68216;SDS011;55037;52.354;4.992;2023-06-10T05:34:20;8.00;;;4.82;;
68216;SDS011;55037;52.354;4.992;2023-06-10T05:36:47;11.43;;;4.47;;
68216;SDS011;55037;52.354;4.992;2023-06-10T05:39:15;7.80;;;4.43;;
68216;SDS011;55037;52.354;4.992;2023-06-10T05:41:42;9.48;;;4.22;;
68216;SDS011;55037;52.354;4.992;2023-06-10T05:44:09;9.52;;;4.38;;
68216;SDS011;55037;52.354;4.992;2023-06-10T05:46:40;12.10;;;5.72;;
68216;SDS011;55037;52.354;4.992;2023-06-10T05:49:07;8.20;;;4.43;;
68216;SDS011;55037;52.354;4.992;2023-06-10T05:51:34;6.88;;;4.13;;
68216;SDS011;55037;52.354;4.992;2023-06-10T05:54:02;7.97;;;4.57;;
68216;SDS011;55037;52.354;4.992;2023-06-10T05:56:29;10.52;;;4.43;;
68216;SDS011;55037;52.354;4.992;2023-06-10T05:58:56;7.47;;;4.30;;
68216;SDS011;55037;52.354;4.992;2023-06-10T06:01:24;8.03;;;4.27;;
68216;SDS011;55037;52.354;4.992;2023-06-10T06:03:51;9.73;;;4.68;;
68216;SDS011;55037;52.354;4.992;2023-06-10T06:06:18;8.27;;;4.25;;
68216;SDS011;55037;52.354;4.992;2023-06-10T06:08:47;8.40;;;4.65;;
68216;SDS011;55037;52.354;4.992;2023-06-10T06:11:14;7.55;;;4.35;;
68216;SDS011;55037;52.354;4.992;2023-06-10T06:13:41;8.33;;;4.70;;
68216;SDS011;55037;52.354;4.992;2023-06-10T06:16:09;9.25;;;4.35;;
68216;SDS011;55037;52.354;4.992;2023-06-10T06:18:36;7.07;;;4.80;;
68216;SDS011;55037;52.354;4.992;2023-06-10T06:21:03;7.65;;;4.03;;
68216;SDS011;55037;52.354;4.992;2023-06-10T06:23:31;6.88;;;4.00;;
68216;SDS011;55037;52.354;4.992;2023-06-10T06:25:58;8.67;;;5.07;;
68216;SDS011;55037;52.354;4.992;2023-06-10T06:28:25;7.82;;;4.75;;
68216;SDS011;55037;52.354;4.992;2023-06-10T06:30:56;9.43;;;4.50;;
68216;SDS011;55037;52.354;4.992;2023-06-10T06:33:24;8.63;;;4.88;;
68216;SDS011;55037;52.354;4.992;2023-06-10T06:35:52;9.05;;;5.18;;
68216;SDS011;55037;52.354;4.992;2023-06-10T06:38:20;9.70;;;5.57;;
68216;SDS011;55037;52.354;4.992;2023-06-10T06:40:47;10.63;;;4.60;;
68216;SDS011;55037;52.354;4.992;2023-06-10T06:43:14;9.40;;;5.05;;
68216;SDS011;55037;52.354;4.992;2023-06-10T06:45:52;9.73;;;4.60;;
68216;SDS011;55037;52.354;4.992;2023-06-10T06:48:19;8.65;;;4.43;;
68216;SDS011;55037;52.354;4.992;2023-06-10T06:50:48;10.20;;;4.77;;
68216;SDS011;55037;52.354;4.992;2023-06-10T06:53:15;13.20;;;5.38;;
68216;SDS011;55037;52.354;4.992;2023-06-10T06:55:42;12.23;;;5.72;;
68216;SDS011;55037;52.354;4.992;2023-06-10T06:58:09;10.10;;;5.15;;
68216;SDS011;55037;52.354;4.992;2023-06-10T07:00:37;9.90;;;4.95;;
68216;SDS011;55037;52.354;4.992;2023-06-10T07:03:04;8.47;;;4.83;;
68216;SDS011;55037;52.354;4.992;2023-06-10T07:05:31;13.20;;;4.60;;
68216;SDS011;55037;52.354;4.992;2023-06-10T07:07:59;7.15;;;4.80;;
68216;SDS011;55037;52.354;4.992;2023-06-10T07:10:26;11.05;;;5.10;;
68216;SDS011;55037;52.354;4.992;2023-06-10T07:12:55;7.85;;;3.90;;
68216;SDS011;55037;52.354;4.992;2023-06-10T07:15:22;9.63;;;5.20;;
68216;SDS011;55037;52.354;4.992;2023-06-10T07:17:49;9.80;;;5.32;;
68216;SDS011;55037;52.354;4.992;2023-06-10T07:20:17;7.93;;;5.05;;
68216;SDS011;55037;52.354;4.992;2023-06-10T07:22:45;9.18;;;5.70;;
68216;SDS011;55037;52.354;4.992;2023-06-10T07:25:12;9.45;;;5.57;;
68216;SDS011;55037;52.354;4.992;2023-06-10T07:27:39;10.00;;;5.63;;
68216;SDS011;55037;52.354;4.992;2023-06-10T07:30:07;9.48;;;5.57;;
68216;SDS011;55037;52.354;4.992;2023-06-10T07:32:35;10.63;;;6.05;;
68216;SDS011;55037;52.354;4.992;2023-06-10T07:35:02;9.48;;;5.72;;
68216;SDS011;55037;52.354;4.992;2023-06-10T07:37:30;10.48;;;4.95;;
68216;SDS011;55037;52.354;4.992;2023-06-10T07:39:57;8.90;;;5.00;;
68216;SDS011;55037;52.354;4.992;2023-06-10T07:42:24;7.32;;;4.47;;
68216;SDS011;55037;52.354;4.992;2023-06-10T07:44:51;11.40;;;6.40;;
68216;SDS011;55037;52.354;4.992;2023-06-10T07:47:19;9.50;;;5.30;;
68216;SDS011;55037;52.354;4.992;2023-06-10T07:49:46;10.05;;;5.55;;
68216;SDS011;55037;52.354;4.992;2023-06-10T07:52:13;7.93;;;5.00;;
68216;SDS011;55037;52.354;4.992;2023-06-10T07:54:40;9.73;;;5.28;;
68216;SDS011;55037;52.354;4.992;2023-06-10T07:57:07;13.05;;;5.50;;
68216;SDS011;55037;52.354;4.992;2023-06-10T07:59:35;9.48;;;6.15;;
68216;SDS011;55037;52.354;4.992;2023-06-10T08:02:02;9.85;;;6.60;;
68216;SDS011;55037;52.354;4.992;2023-06-10T08:04:29;10.83;;;6.37;;
68216;SDS011;55037;52.354;4.992;2023-06-10T08:06:57;9.43;;;5.85;;
68216;SDS011;55037;52.354;4.992;2023-06-10T08:09:25;13.95;;;5.05;;
68216;SDS011;55037;52.354;4.992;2023-06-10T08:11:52;9.13;;;5.25;;
68216;SDS011;55037;52.354;4.992;2023-06-10T08:14:19;10.55;;;6.53;;
68216;SDS011;55037;52.354;4.992;2023-06-10T08:16:46;11.77;;;6.67;;
68216;SDS011;55037;52.354;4.992;2023-06-10T08:19:14;8.93;;;5.88;;
68216;SDS011;55037;52.354;4.992;2023-06-10T08:21:41;10.35;;;6.57;;
68216;SDS011;55037;52.354;4.992;2023-06-10T08:24:09;12.70;;;6.70;;
68216;SDS011;55037;52.354;4.992;2023-06-10T08:26:37;12.93;;;7.15;;
68216;SDS011;55037;52.354;4.992;2023-06-10T08:29:05;10.33;;;6.40;;
68216;SDS011;55037;52.354;4.992;2023-06-10T08:31:33;11.00;;;5.95;;
68216;SDS011;55037;52.354;4.992;2023-06-10T08:34:00;10.93;;;5.80;;
68216;SDS011;55037;52.354;4.992;2023-06-10T08:36:27;12.98;;;7.32;;
68216;SDS011;55037;52.354;4.992;2023-06-10T08:38:54;11.85;;;6.20;;
68216;SDS011;55037;52.354;4.992;2023-06-10T08:41:22;11.07;;;6.30;;
68216;SDS011;55037;52.354;4.992;2023-06-10T08:43:59;8.73;;;5.85;;
68216;SDS011;55037;52.354;4.992;2023-06-10T08:46:34;11.45;;;6.40;;
68216;SDS011;55037;52.354;4.992;2023-06-10T08:49:05;11.05;;;6.45;;
68216;SDS011;55037;52.354;4.992;2023-06-10T08:51:34;10.00;;;6.93;;
68216;SDS011;55037;52.354;4.992;2023-06-10T08:54:06;12.10;;;7.03;;
68216;SDS011;55037;52.354;4.992;2023-06-10T08:56:41;9.65;;;6.57;;
68216;SDS011;55037;52.354;4.992;2023-06-10T08:59:09;12.25;;;7.10;;
68216;SDS011;55037;52.354;4.992;2023-06-10T09:01:37;11.23;;;6.50;;
68216;SDS011;55037;52.354;4.992;2023-06-10T09:04:05;9.05;;;6.30;;
68216;SDS011;55037;52.354;4.992;2023-06-10T09:06:33;14.30;;;6.70;;
68216;SDS011;55037;52.354;4.992;2023-06-10T09:09:00;11.55;;;6.90;;
68216;SDS011;55037;52.354;4.992;2023-06-10T09:11:30;11.07;;;6.65;;
68216;SDS011;55037;52.354;4.992;2023-06-10T09:13:58;11.52;;;6.70;;
68216;SDS011;55037;52.354;4.992;2023-06-10T09:16:25;15.00;;;7.57;;
68216;SDS011;55037;52.354;4.992;2023-06-10T09:18:53;15.17;;;7.07;;
68216;SDS011;55037;52.354;4.992;2023-06-10T09:21:24;12.25;;;6.95;;
68216;SDS011;55037;52.354;4.992;2023-06-10T09:23:52;12.85;;;7.10;;
68216;SDS011;55037;52.354;4.992;2023-06-10T09:26:19;13.20;;;6.88;;
68216;SDS011;55037;52.354;4.992;2023-06-10T09:28:47;11.13;;;6.68;;
68216;SDS011;55037;52.354;4.992;2023-06-10T09:31:16;11.00;;;6.47;;
68216;SDS011;55037;52.354;4.992;2023-06-10T09:33:46;11.38;;;6.60;;
68216;SDS011;55037;52.354;4.992;2023-06-10T09:36:21;12.50;;;7.07;;
68216;SDS011;55037;52.354;4.992;2023-06-10T09:38:49;12.18;;;7.05;;
68216;SDS011;55037;52.354;4.992;2023-06-10T09:41:19;9.45;;;6.53;;
68216;SDS011;55037;52.354;4.992;2023-06-10T09:43:48;12.83;;;6.93;;
68216;SDS011;55037;52.354;4.992;2023-06-10T09:48:44;10.50;;;6.90;;
68216;SDS011;55037;52.354;4.992;2023-06-10T09:51:13;15.95;;;7.85;;
68216;SDS011;55037;52.354;4.992;2023-06-10T09:53:47;12.05;;;6.80;;
68216;SDS011;55037;52.354;4.992;2023-06-10T09:56:16;17.97;;;7.47;;
68216;SDS011;55037;52.354;4.992;2023-06-10T09:58:44;11.35;;;6.70;;
68216;SDS011;55037;52.354;4.992;2023-06-10T10:01:13;11.00;;;7.15;;
68216;SDS011;55037;52.354;4.992;2023-06-10T10:03:45;11.52;;;7.10;;
68216;SDS011;55037;52.354;4.992;2023-06-10T10:06:15;10.35;;;6.95;;
68216;SDS011;55037;52.354;4.992;2023-06-10T10:08:49;11.43;;;7.40;;
68216;SDS011;55037;52.354;4.992;2023-06-10T10:11:18;10.60;;;6.50;;
68216;SDS011;55037;52.354;4.992;2023-06-10T10:13:48;11.32;;;6.68;;
68216;SDS011;55037;52.354;4.992;2023-06-10T10:16:23;10.07;;;6.50;;
68216;SDS011;55037;52.354;4.992;2023-06-10T10:19:04;12.65;;;7.03;;
68216;SDS011;55037;52.354;4.992;2023-06-10T10:21:43;13.17;;;6.97;;
68216;SDS011;55037;52.354;4.992;2023-06-10T10:24:27;13.13;;;6.28;;
68216;SDS011;55037;52.354;4.992;2023-06-10T10:27:01;10.75;;;6.22;;
68216;SDS011;55037;52.354;4.992;2023-06-10T10:29:34;10.98;;;6.57;;
68216;SDS011;55037;52.354;4.992;2023-06-10T10:32:08;10.43;;;6.15;;
68216;SDS011;55037;52.354;4.992;2023-06-10T10:37:17;10.35;;;7.60;;
68216;SDS011;55037;52.354;4.992;2023-06-10T10:39:44;11.00;;;7.13;;
68216;SDS011;55037;52.354;4.992;2023-06-10T10:42:12;12.15;;;6.60;;
68216;SDS011;55037;52.354;4.992;2023-06-10T10:44:40;9.55;;;6.05;;
68216;SDS011;55037;52.354;4.992;2023-06-10T10:47:08;15.03;;;7.43;;
68216;SDS011;55037;52.354;4.992;2023-06-10T10:49:37;11.57;;;6.32;;
68216;SDS011;55037;52.354;4.992;2023-06-10T10:52:10;15.80;;;6.90;;
68216;SDS011;55037;52.354;4.992;2023-06-10T10:54:41;10.20;;;6.45;;
68216;SDS011;55037;52.354;4.992;2023-06-10T10:57:12;8.15;;;5.93;;
68216;SDS011;55037;52.354;4.992;2023-06-10T10:59:59;8.63;;;5.70;;
68216;SDS011;55037;52.354;4.992;2023-06-10T11:05:01;9.50;;;5.80;;
68216;SDS011;55037;52.354;4.992;2023-06-10T11:07:30;10.52;;;6.13;;
68216;SDS011;55037;52.354;4.992;2023-06-10T11:09:58;9.10;;;5.68;;
68216;SDS011;55037;52.354;4.992;2023-06-10T11:12:50;11.80;;;6.00;;
68216;SDS011;55037;52.354;4.992;2023-06-10T11:15:20;8.63;;;5.75;;
68216;SDS011;55037;52.354;4.992;2023-06-10T11:31:31;8.43;;;5.95;;
68216;SDS011;55037;52.354;4.992;2023-06-10T11:34:01;9.40;;;6.15;;
68216;SDS011;55037;52.354;4.992;2023-06-10T11:36:31;8.25;;;6.05;;
68216;SDS011;55037;52.354;4.992;2023-06-10T11:39:00;10.40;;;7.00;;
68216;SDS011;55037;52.354;4.992;2023-06-10T11:41:32;10.25;;;6.60;;
68216;SDS011;55037;52.354;4.992;2023-06-10T11:44:04;8.55;;;5.53;;
68216;SDS011;55037;52.354;4.992;2023-06-10T11:46:32;8.95;;;7.05;;
68216;SDS011;55037;52.354;4.992;2023-06-10T11:49:00;7.40;;;5.82;;
68216;SDS011;55037;52.354;4.992;2023-06-10T11:51:33;7.90;;;6.57;;
68216;SDS011;55037;52.354;4.992;2023-06-10T11:54:02;9.40;;;6.55;;
68216;SDS011;55037;52.354;4.992;2023-06-10T11:56:31;9.10;;;6.45;;
68216;SDS011;55037;52.354;4.992;2023-06-10T11:59:00;11.80;;;7.32;;
68216;SDS011;55037;52.354;4.992;2023-06-10T12:01:35;8.52;;;6.05;;
68216;SDS011;55037;52.354;4.992;2023-06-10T12:04:07;6.67;;;5.40;;
68216;SDS011;55037;52.354;4.992;2023-06-10T12:06:44;10.32;;;6.20;;
68216;SDS011;55037;52.354;4.992;2023-06-10T12:09:21;8.05;;;6.15;;
68216;SDS011;55037;52.354;4.992;2023-06-10T12:11:55;10.82;;;6.78;;
68216;SDS011;55037;52.354;4.992;2023-06-10T12:17:21;10.60;;;6.80;;
68216;SDS011;55037;52.354;4.992;2023-06-10T12:20:04;10.82;;;7.40;;
68216;SDS011;55037;52.354;4.992;2023-06-10T12:22:37;8.90;;;7.75;;
68216;SDS011;55037;52.354;4.992;2023-06-10T12:25:09;7.85;;;6.85;;
68216;SDS011;55037;52.354;4.992;2023-06-10T12:27:39;8.80;;;7.13;;
68216;SDS011;55037;52.354;4.992;2023-06-10T12:30:24;9.90;;;6.43;;
68216;SDS011;55037;52.354;4.992;2023-06-10T12:32:53;8.63;;;6.88;;
68216;SDS011;55037;52.354;4.992;2023-06-10T12:35:22;11.63;;;6.00;;
68216;SDS011;55037;52.354;4.992;2023-06-10T12:37:58;12.05;;;7.50;;
68216;SDS011;55037;52.354;4.992;2023-06-10T12:40:29;8.15;;;7.00;;
68216;SDS011;55037;52.354;4.992;2023-06-10T12:42:59;9.73;;;7.20;;
68216;SDS011;55037;52.354;4.992;2023-06-10T12:45:31;9.45;;;6.60;;
68216;SDS011;55037;52.354;4.992;2023-06-10T12:48:05;10.38;;;7.30;;
68216;SDS011;55037;52.354;4.992;2023-06-10T12:50:39;8.75;;;5.85;;
68216;SDS011;55037;52.354;4.992;2023-06-10T12:53:08;7.50;;;6.80;;
68216;SDS011;55037;52.354;4.992;2023-06-10T12:55:36;8.00;;;5.83;;
68216;SDS011;55037;52.354;4.992;2023-06-10T12:58:04;10.25;;;9.20;;
68216;SDS011;55037;52.354;4.992;2023-06-10T13:00:31;11.55;;;6.25;;
68216;SDS011;55037;52.354;4.992;2023-06-10T13:03:01;7.20;;;5.88;;
68216;SDS011;55037;52.354;4.992;2023-06-10T13:05:29;7.68;;;6.90;;
68216;SDS011;55037;52.354;4.992;2023-06-10T13:07:57;8.17;;;7.37;;
68216;SDS011;55037;52.354;4.992;2023-06-10T13:10:25;9.65;;;8.75;;
68216;SDS011;55037;52.354;4.992;2023-06-10T13:12:52;8.85;;;6.90;;
68216;SDS011;55037;52.354;4.992;2023-06-10T13:15:21;8.77;;;7.30;;
68216;SDS011;55037;52.354;4.992;2023-06-10T13:17:49;8.55;;;7.38;;
68216;SDS011;55037;52.354;4.992;2023-06-10T13:20:18;9.53;;;8.13;;
68216;SDS011;55037;52.354;4.992;2023-06-10T13:22:47;9.80;;;6.80;;
68216;SDS011;55037;52.354;4.992;2023-06-10T13:25:16;9.40;;;7.93;;
68216;SDS011;55037;52.354;4.992;2023-06-10T13:27:43;9.82;;;6.80;;
68216;SDS011;55037;52.354;4.992;2023-06-10T13:30:10;8.18;;;7.13;;
68216;SDS011;55037;52.354;4.992;2023-06-10T13:32:39;9.57;;;8.67;;
68216;SDS011;55037;52.354;4.992;2023-06-10T13:35:06;11.05;;;9.65;;
68216;SDS011;55037;52.354;4.992;2023-06-10T13:37:37;9.57;;;7.15;;
68216;SDS011;55037;52.354;4.992;2023-06-10T13:40:04;11.43;;;8.82;;
68216;SDS011;55037;52.354;4.992;2023-06-10T13:42:32;8.82;;;7.93;;
68216;SDS011;55037;52.354;4.992;2023-06-10T13:45:00;13.33;;;6.93;;
68216;SDS011;55037;52.354;4.992;2023-06-10T13:47:29;7.95;;;6.50;;
68216;SDS011;55037;52.354;4.992;2023-06-10T13:49:57;7.30;;;6.35;;
68216;SDS011;55037;52.354;4.992;2023-06-10T13:52:24;9.40;;;8.30;;
68216;SDS011;55037;52.354;4.992;2023-06-10T13:54:51;8.80;;;6.88;;
68216;SDS011;55037;52.354;4.992;2023-06-10T13:57:19;11.27;;;7.57;;
68216;SDS011;55037;52.354;4.992;2023-06-10T13:59:46;9.15;;;7.80;;
68216;SDS011;55037;52.354;4.992;2023-06-10T14:02:18;10.48;;;7.32;;
68216;SDS011;55037;52.354;4.992;2023-06-10T14:04:46;9.10;;;8.20;;
68216;SDS011;55037;52.354;4.992;2023-06-10T14:07:14;10.32;;;6.88;;
68216;SDS011;55037;52.354;4.992;2023-06-10T14:09:42;8.10;;;6.13;;
68216;SDS011;55037;52.354;4.992;2023-06-10T14:12:09;10.10;;;7.05;;
68216;SDS011;55037;52.354;4.992;2023-06-10T14:14:37;11.25;;;7.05;;
68216;SDS011;55037;52.354;4.992;2023-06-10T14:17:04;12.07;;;9.15;;
68216;SDS011;55037;52.354;4.992;2023-06-10T14:19:32;10.32;;;6.82;;
68216;SDS011;55037;52.354;4.992;2023-06-10T14:21:59;7.17;;;6.47;;
68216;SDS011;55037;52.354;4.992;2023-06-10T14:24:26;7.40;;;5.38;;
68216;SDS011;55037;52.354;4.992;2023-06-10T14:26:54;10.25;;;5.90;;
68216;SDS011;55037;52.354;4.992;2023-06-10T14:29:21;8.30;;;6.35;;
68216;SDS011;55037;52.354;4.992;2023-06-10T14:31:48;10.15;;;7.15;;
68216;SDS011;55037;52.354;4.992;2023-06-10T14:34:16;7.00;;;5.90;;
68216;SDS011;55037;52.354;4.992;2023-06-10T14:36:43;6.85;;;5.95;;
68216;SDS011;55037;52.354;4.992;2023-06-10T14:39:10;7.43;;;6.72;;
68216;SDS011;55037;52.354;4.992;2023-06-10T14:41:37;8.13;;;7.13;;
68216;SDS011;55037;52.354;4.992;2023-06-10T14:44:05;7.22;;;6.53;;
68216;SDS011;55037;52.354;4.992;2023-06-10T14:46:32;7.40;;;6.33;;
68216;SDS011;55037;52.354;4.992;2023-06-10T14:49:00;7.97;;;5.55;;
68216;SDS011;55037;52.354;4.992;2023-06-10T14:51:29;7.82;;;6.30;;
68216;SDS011;55037;52.354;4.992;2023-06-10T14:53:56;7.32;;;6.55;;
68216;SDS011;55037;52.354;4.992;2023-06-10T14:56:24;7.45;;;6.72;;
68216;SDS011;55037;52.354;4.992;2023-06-10T14:58:52;8.13;;;6.97;;
68216;SDS011;55037;52.354;4.992;2023-06-10T15:01:19;7.10;;;6.32;;
68216;SDS011;55037;52.354;4.992;2023-06-10T15:03:47;6.35;;;5.47;;
68216;SDS011;55037;52.354;4.992;2023-06-10T15:06:14;8.02;;;6.55;;
68216;SDS011;55037;52.354;4.992;2023-06-10T15:08:47;8.48;;;6.32;;
68216;SDS011;55037;52.354;4.992;2023-06-10T15:11:15;8.77;;;5.80;;
68216;SDS011;55037;52.354;4.992;2023-06-10T15:13:42;8.60;;;5.45;;
68216;SDS011;55037;52.354;4.992;2023-06-10T15:16:10;7.55;;;5.20;;
68216;SDS011;55037;52.354;4.992;2023-06-10T15:18:37;7.55;;;6.68;;
68216;SDS011;55037;52.354;4.992;2023-06-10T15:21:04;6.70;;;5.82;;